Back to Top
Banner_Quays_at_Mast_2020.jpeg
Banner_VERITY.jpeg
Banner_P42_Kinsale_2004.jpeg
Superyacht_SCOUT.jpg
Kinsale_Trawlers_Banner.jpeg
previous arrow
next arrow

Port Arrivals Report (AIS)

This report is generated from collected AIS (Automated Identification System) signals from vessels entering port.

IMO MMSI Class Flag Vessel Name Vessel type Nav Status Destination Call Sign Latitude Longitude Speed (kts) Course (T) Draught (m) LOA (m) Beam (m) Timestamp
0 250006727 B IE CHANCER Pleasure craft - EIA2005 51.688 -8.4968 8.2 321.6 0 17 3 2024-06-26 20:14:42
0 250004059 B IE JUSTUS SAILING. - EI-RR-6 51.6871 -8.49565 7.2 324.9 0 11 3 2024-06-26 20:14:36
0 232014229 B GB ALLEGRETTO OF WIGHT Pleasure craft - 2CGS7 51.6876 -8.49904 9.3 354.1 0 0 0 2024-06-26 18:41:07
0 232006975 B GB VIJAYA SAILING. - MASX6 51.6881 -8.49926 4.7 359.3 0 12 4 2024-06-26 17:09:18
0 250003764 B IE MICHELLE FISHING. - EI-8817 51.6874 -8.49809 5.6 337.7 0 10 4 2024-06-26 15:42:06
0 227773740 B FR CANGA - - 51.6873 -8.49965 4.3 353.1 0 0 0 2024-06-26 15:27:42
0 250005375 B IE LAOISE T Pleasure craft - EI-UQ-3 51.6871 -8.4977 5.6 353.1 0 20 6 2024-06-26 14:31:06
0 235079087 B GB SUENOS SAILING. - 2DHS6 51.6872 -8.49788 3.7 349.9 0 13 7 2024-06-26 14:24:02
0 244010637 B NL XINIA SAILING. - PD9081 51.6876 -8.49896 3.3 344.1 0 11 4 2024-06-26 12:10:49
0 250010388 B IE FLIGHT OF FANTASY SAILING. - EI3331 51.6874 -8.49842 5.2 9.6 0 10 4 2024-06-26 12:03:36
0 227726130 B FR AMARANTE SAILING. - FL 9638 51.688 -8.4995 5.9 34.3 0 11 3 2024-06-26 10:56:34
0 982488791 B 982 AIR - T1 Pleasure craft - 9HA4843 51.6872 -8.49703 18 349.3 0 10 4 2024-06-26 08:25:51
0 232016609 B GB RNLI LIFEBOAT B-909 SAR. - 51.6955 -8.50272 35.7 340.4 0 8 2 2024-06-25 20:20:41
0 228098820 B FR KAMANA Pleasure craft - FAJ4257 51.688 -8.49959 4.5 346.8 0 16 4 2024-06-25 19:39:25
0 982488791 B 982 AIR - T1 Pleasure craft - 9HA4843 51.7035 -8.50896 5.8 296.1 0 10 4 2024-06-25 17:06:37
0 982488791 B 982 AIR - T1 Pleasure craft - 9HA4843 51.6914 -8.49872 11.4 342.8 0 10 4 2024-06-25 16:11:46
0 227949360 B FR HEAVEN CAN WAIT Pleasure craft - FAG5375 51.6872 -8.49823 2.9 336.3 0 13 4 2024-06-25 14:48:32
0 235068584 B GB SALTHEART SAILING. - 2BRA5 51.6879 -8.49874 4.5 355.3 0 10 3 2024-06-25 14:35:25
0 227758540 B FR YUG ENNA 2 SAILING. - FGF8220 51.6881 -8.49857 5 350.9 0 12 4 2024-06-25 14:30:20
0 982488791 B 982 AIR - T1 Pleasure craft - 9HA4843 51.6876 -8.4969 19.2 2.7 0 10 4 2024-06-25 12:32:22